createdAt,value
2018-01-04T00:01:41.432Z,3.00
2018-01-04T00:04:09.776Z,2.63
2018-01-04T00:06:37.235Z,2.83
2018-01-04T00:09:04.708Z,2.63
2018-01-04T00:11:32.170Z,3.20
2018-01-04T00:13:59.654Z,3.67
2018-01-04T00:16:27.097Z,3.00
2018-01-04T00:18:54.796Z,3.40
2018-01-04T00:21:23.255Z,2.93
2018-01-04T00:23:50.729Z,3.20
2018-01-04T00:26:18.211Z,2.40
2018-01-04T00:28:45.701Z,3.20
2018-01-04T00:31:13.222Z,2.90
2018-01-04T00:33:41.436Z,2.83
2018-01-04T00:36:08.917Z,2.77
2018-01-04T00:38:37.190Z,2.70
2018-01-04T00:41:05.405Z,3.00
2018-01-04T00:43:32.880Z,3.17
2018-01-04T00:46:00.423Z,2.50
2018-01-04T00:48:27.902Z,2.93
2018-01-04T00:50:55.352Z,2.80
2018-01-04T00:53:22.803Z,2.63
2018-01-04T00:55:51.115Z,2.90
2018-01-04T00:58:18.573Z,2.77
2018-01-04T01:00:46.034Z,2.47
2018-01-04T01:03:13.521Z,2.93
2018-01-04T01:05:40.985Z,3.23
2018-01-04T01:08:08.521Z,2.93
2018-01-04T01:10:35.978Z,3.00
2018-01-04T01:13:04.357Z,2.73
2018-01-04T01:15:32.596Z,2.80
2018-01-04T01:18:00.054Z,2.67
2018-01-04T01:20:27.633Z,2.83
2018-01-04T01:22:55.078Z,2.83
2018-01-04T01:25:22.575Z,2.70
2018-01-04T01:27:50.033Z,2.80
2018-01-04T01:30:17.522Z,2.83
2018-01-04T01:32:45.729Z,3.20
2018-01-04T01:35:13.270Z,3.10
2018-01-04T01:37:40.724Z,3.20
2018-01-04T01:40:09.146Z,2.90
2018-01-04T01:42:36.599Z,3.10
2018-01-04T01:45:04.047Z,3.07
2018-01-04T01:47:31.503Z,2.20
2018-01-04T01:49:58.956Z,2.70
2018-01-04T01:52:26.415Z,2.77
2018-01-04T01:54:53.910Z,2.80
2018-01-04T01:57:21.365Z,2.50
2018-01-04T01:59:48.829Z,2.90
2018-01-04T02:02:16.282Z,2.40
2018-01-04T02:04:43.729Z,2.63
2018-01-04T02:07:11.236Z,2.63
2018-01-04T02:09:38.691Z,2.53
2018-01-04T02:12:06.140Z,2.40
2018-01-04T02:14:34.352Z,2.93
2018-01-04T02:17:01.815Z,2.70
2018-01-04T02:19:40.938Z,2.57
2018-01-04T02:22:20.245Z,3.23
2018-01-04T02:24:59.522Z,2.80
2018-01-04T02:27:38.822Z,2.90
2018-01-04T02:30:18.045Z,2.37
2018-01-04T02:32:57.325Z,2.63
2018-01-04T02:35:37.398Z,2.73
2018-01-04T02:38:16.772Z,2.03
2018-01-04T02:40:56.785Z,2.60
2018-01-04T02:43:36.057Z,2.80
2018-01-04T02:46:15.324Z,2.40
2018-01-04T02:48:42.790Z,2.87
2018-01-04T02:51:10.229Z,3.40
2018-01-04T02:53:37.692Z,3.00
2018-01-04T02:56:05.148Z,2.70
2018-01-04T02:58:32.633Z,3.07
2018-01-04T03:01:00.112Z,3.13
2018-01-04T03:03:27.565Z,3.27
2018-01-04T03:05:55.038Z,3.00
2018-01-04T03:08:23.269Z,3.27
2018-01-04T03:10:50.718Z,2.90
2018-01-04T03:13:18.176Z,3.57
2018-01-04T03:15:45.625Z,3.60
2018-01-04T03:18:13.113Z,3.50
2018-01-04T03:20:40.563Z,3.63
2018-01-04T03:23:13.577Z,3.23
2018-01-04T03:25:46.690Z,3.80
2018-01-04T03:28:19.832Z,3.53
2018-01-04T03:30:52.957Z,4.37
2018-01-04T03:33:27.006Z,3.67
2018-01-04T03:36:00.149Z,4.07
2018-01-04T03:38:33.322Z,3.60
2018-01-04T03:41:07.522Z,3.63
2018-01-04T03:43:40.636Z,4.00
2018-01-04T03:46:13.829Z,4.10
2018-01-04T03:48:47.044Z,4.00
2018-01-04T03:51:20.810Z,3.53
2018-01-04T03:53:53.980Z,3.70
2018-01-04T03:56:27.137Z,3.97
2018-01-04T03:59:00.928Z,3.50
2018-01-04T04:01:34.902Z,3.93
2018-01-04T04:04:02.460Z,4.10
2018-01-04T04:06:32.819Z,4.03
2018-01-04T04:09:00.297Z,3.73
2018-01-04T04:11:28.613Z,4.00
2018-01-04T04:13:56.064Z,4.17
2018-01-04T04:16:24.447Z,4.30
2018-01-04T04:18:51.903Z,3.90
2018-01-04T04:21:19.436Z,4.00
2018-01-04T04:23:46.884Z,3.83
2018-01-04T04:26:15.123Z,3.70
2018-01-04T04:28:42.612Z,3.80
2018-01-04T04:31:10.846Z,4.07
2018-01-04T04:33:38.293Z,3.67
2018-01-04T04:36:05.773Z,3.50
2018-01-04T04:38:33.236Z,4.53
2018-01-04T04:41:00.697Z,3.90
2018-01-04T04:43:28.141Z,3.67
2018-01-04T04:45:55.690Z,3.87
2018-01-04T04:48:23.921Z,3.80
2018-01-04T04:50:51.372Z,4.10
2018-01-04T04:53:18.824Z,3.97
2018-01-04T04:55:47.050Z,4.00
2018-01-04T04:58:14.605Z,3.40
2018-01-04T05:00:42.142Z,3.30
2018-01-04T05:03:09.591Z,3.90
2018-01-04T05:05:37.046Z,3.70
2018-01-04T05:08:04.498Z,3.57
2018-01-04T05:10:32.787Z,3.40
2018-01-04T05:13:00.216Z,3.43
2018-01-04T05:15:28.437Z,4.10
2018-01-04T05:17:55.977Z,3.80
2018-01-04T05:20:23.421Z,3.33
2018-01-04T05:22:51.643Z,4.40
2018-01-04T05:25:19.102Z,3.40
2018-01-04T05:27:46.564Z,3.30
2018-01-04T05:30:14.115Z,2.80
2018-01-04T05:32:41.961Z,3.70
2018-01-04T05:35:09.425Z,4.43
2018-01-04T05:37:36.876Z,3.57
2018-01-04T05:40:04.327Z,3.67
2018-01-04T05:42:31.798Z,4.13
2018-01-04T05:44:59.255Z,3.63
2018-01-04T05:47:26.751Z,3.57
2018-01-04T05:49:54.201Z,3.37
2018-01-04T05:52:21.673Z,3.30
2018-01-04T05:54:49.144Z,4.37
2018-01-04T05:57:17.381Z,3.93
2018-01-04T05:59:44.864Z,3.30
2018-01-04T06:02:12.324Z,3.70
2018-01-04T06:04:39.768Z,3.30
2018-01-04T06:07:07.229Z,3.47
2018-01-04T06:09:34.681Z,3.40
2018-01-04T06:12:02.149Z,3.83
2018-01-04T06:14:29.596Z,3.60
2018-01-04T06:16:57.855Z,3.93
2018-01-04T06:19:25.299Z,3.30
2018-01-04T06:21:52.754Z,3.40
2018-01-04T06:24:20.218Z,3.30
2018-01-04T06:26:47.670Z,3.13
2018-01-04T06:29:15.128Z,3.30
2018-01-04T06:31:42.582Z,3.63
2018-01-04T06:34:10.037Z,5.30
2018-01-04T06:36:37.489Z,5.40
2018-01-04T06:39:04.948Z,7.00
2018-01-04T06:41:32.406Z,6.77
2018-01-04T06:43:59.866Z,7.33
2018-01-04T06:46:27.338Z,6.13
2018-01-04T06:48:54.806Z,7.00
2018-01-04T06:51:22.269Z,7.13
2018-01-04T06:53:49.721Z,6.50
2018-01-04T06:56:17.181Z,7.10
2018-01-04T06:58:44.657Z,7.10
2018-01-04T07:01:12.114Z,6.87
2018-01-04T07:03:41.077Z,7.77
2018-01-04T07:06:08.535Z,6.70
2018-01-04T07:08:35.982Z,6.43
2018-01-04T07:11:03.441Z,8.10
2018-01-04T07:13:30.897Z,6.50
2018-01-04T07:15:58.368Z,6.40
2018-01-04T07:18:25.834Z,6.50
2018-01-04T07:20:53.305Z,6.00
2018-01-04T07:23:20.767Z,6.63
2018-01-04T07:25:48.253Z,6.27
2018-01-04T07:28:15.702Z,7.10
2018-01-04T07:30:43.930Z,7.07
2018-01-04T07:33:11.380Z,7.13
2018-01-04T07:35:38.842Z,6.40
2018-01-04T07:38:06.310Z,6.90
2018-01-04T07:40:33.762Z,6.53
2018-01-04T07:43:01.220Z,6.37
2018-01-04T07:45:28.677Z,6.70
2018-01-04T07:47:56.156Z,7.73
2018-01-04T07:50:25.110Z,6.67
2018-01-04T07:52:52.571Z,6.37
2018-01-04T07:55:20.113Z,6.10
2018-01-04T07:57:47.557Z,6.90
2018-01-04T08:00:15.009Z,7.03
2018-01-04T08:02:43.237Z,6.20
2018-01-04T08:05:10.700Z,6.67
2018-01-04T08:07:38.154Z,7.13
2018-01-04T08:10:05.613Z,5.40
2018-01-04T08:12:33.066Z,5.40
2018-01-04T08:15:00.595Z,5.93
2018-01-04T08:17:28.037Z,5.57
2018-01-04T08:19:55.526Z,6.53
2018-01-04T08:22:22.976Z,6.10
2018-01-04T08:24:50.437Z,5.67
2018-01-04T08:27:17.891Z,5.67
2018-01-04T08:29:45.405Z,5.23
2018-01-04T08:32:12.809Z,6.27
2018-01-04T08:34:40.326Z,5.60
2018-01-04T08:37:08.577Z,5.20
2018-01-04T08:39:36.029Z,5.53
2018-01-04T08:42:03.489Z,6.43
2018-01-04T08:44:30.956Z,5.50
2018-01-04T08:46:58.419Z,4.87
2018-01-04T08:49:25.883Z,5.60
2018-01-04T08:51:53.338Z,5.00
2018-01-04T08:54:20.796Z,5.70
2018-01-04T08:56:48.246Z,6.03
2018-01-04T08:59:15.737Z,5.37
2018-01-04T09:01:43.192Z,5.30
2018-01-04T09:04:10.641Z,5.00
2018-01-04T09:06:38.878Z,5.13
2018-01-04T09:09:07.090Z,4.80
2018-01-04T09:11:35.329Z,5.17
2018-01-04T09:14:02.780Z,5.20
2018-01-04T09:16:30.232Z,5.10
2018-01-04T09:18:57.692Z,5.40
2018-01-04T09:21:25.910Z,5.07
2018-01-04T09:23:54.130Z,4.70
2018-01-04T09:26:21.589Z,5.07
2018-01-04T09:28:49.045Z,4.03
2018-01-04T09:31:16.504Z,5.00
2018-01-04T09:33:43.971Z,4.90
2018-01-04T09:36:12.177Z,4.43
2018-01-04T09:38:40.413Z,4.30
2018-01-04T09:41:07.865Z,4.40
2018-01-04T09:43:35.338Z,4.80
2018-01-04T09:46:02.793Z,4.37
2018-01-04T09:48:30.250Z,4.23
2018-01-04T09:50:57.714Z,4.27
2018-01-04T09:53:25.188Z,4.03
2018-01-04T09:55:52.636Z,4.03
2018-01-04T09:58:20.101Z,4.53
2018-01-04T10:00:47.549Z,4.63
2018-01-04T10:03:15.026Z,4.33
2018-01-04T10:05:42.481Z,4.03
2018-01-04T10:08:09.938Z,4.80
2018-01-04T10:10:37.433Z,4.37
2018-01-04T10:13:04.882Z,4.30
2018-01-04T10:15:32.329Z,4.27
2018-01-04T10:18:00.550Z,4.47
2018-01-04T10:20:28.014Z,4.30
2018-01-04T10:22:56.282Z,4.43
2018-01-04T10:25:24.461Z,3.77
2018-01-04T10:27:51.913Z,4.43
2018-01-04T10:30:19.385Z,4.30
2018-01-04T10:32:46.833Z,3.90
2018-01-04T10:35:14.285Z,3.73
2018-01-04T10:37:41.743Z,4.17
2018-01-04T10:40:09.209Z,3.67
2018-01-04T10:42:36.660Z,3.50
2018-01-04T10:45:04.125Z,4.40
2018-01-04T10:47:31.587Z,4.20
2018-01-04T10:49:59.043Z,4.30
2018-01-04T10:52:26.501Z,4.17
2018-01-04T10:54:54.728Z,4.73
2018-01-04T10:57:22.173Z,3.90
2018-01-04T10:59:49.646Z,4.20
2018-01-04T11:02:17.093Z,4.00
2018-01-04T11:04:44.606Z,3.83
2018-01-04T11:07:12.062Z,4.30
2018-01-04T11:09:39.522Z,3.73
2018-01-04T11:12:06.978Z,4.37
2018-01-04T11:14:35.189Z,4.00
2018-01-04T11:17:03.425Z,4.10
2018-01-04T11:19:30.877Z,4.10
2018-01-04T11:21:58.337Z,4.47
2018-01-04T11:24:25.773Z,3.90
2018-01-04T11:26:53.230Z,3.97
2018-01-04T11:29:20.689Z,4.57
2018-01-04T11:31:48.148Z,4.20
2018-01-04T11:34:15.598Z,4.73
2018-01-04T11:36:43.056Z,3.93
2018-01-04T11:39:10.517Z,3.97
2018-01-04T11:41:39.900Z,3.97
2018-01-04T11:44:08.118Z,3.80
2018-01-04T11:46:36.346Z,4.07
2018-01-04T11:49:03.803Z,4.10
2018-01-04T11:51:31.262Z,4.17
2018-01-04T11:53:58.722Z,4.10
2018-01-04T11:56:26.172Z,4.20
2018-01-04T11:58:53.634Z,4.30
2018-01-04T12:01:21.076Z,3.97
2018-01-04T12:03:49.313Z,4.40
2018-01-04T12:06:16.777Z,3.73
2018-01-04T12:08:45.006Z,4.03
2018-01-04T12:11:12.446Z,3.37
2018-01-04T12:13:40.665Z,3.70
2018-01-04T12:16:08.123Z,4.40
2018-01-04T12:18:35.593Z,4.60
2018-01-04T12:21:03.043Z,3.80
2018-01-04T12:23:30.500Z,3.57
2018-01-04T12:25:58.722Z,3.67
2018-01-04T12:28:26.940Z,4.27
2018-01-04T12:30:54.389Z,3.37
2018-01-04T12:33:21.845Z,4.10
2018-01-04T12:35:49.617Z,4.40
2018-01-04T12:38:17.086Z,3.63
2018-01-04T12:40:44.533Z,4.43
2018-01-04T12:43:11.990Z,3.60
2018-01-04T12:45:39.445Z,3.50
2018-01-04T12:48:06.946Z,3.70
2018-01-04T12:50:34.390Z,3.97
2018-01-04T12:53:01.850Z,4.40
2018-01-04T12:55:29.312Z,4.67
2018-01-04T12:57:56.761Z,4.50
2018-01-04T13:00:24.998Z,4.20
2018-01-04T13:02:52.470Z,3.80
2018-01-04T13:05:19.976Z,4.70
2018-01-04T13:07:47.442Z,4.70
2018-01-04T13:10:14.937Z,4.43
2018-01-04T13:12:42.411Z,4.40
2018-01-04T13:15:09.870Z,4.90
2018-01-04T13:17:37.330Z,4.93
2018-01-04T13:20:04.804Z,3.90
2018-01-04T13:22:32.253Z,4.80
2018-01-04T13:25:00.477Z,4.50
2018-01-04T13:27:27.930Z,3.60
2018-01-04T13:29:56.310Z,3.80
2018-01-04T13:32:23.756Z,4.60
2018-01-04T13:34:51.989Z,10.70
2018-01-04T13:37:19.445Z,11.30
2018-01-04T13:39:46.921Z,12.27
2018-01-04T13:42:15.160Z,11.40
2018-01-04T13:44:42.630Z,10.93
2018-01-04T13:47:10.854Z,14.00
2018-01-04T13:49:39.172Z,12.97
2018-01-04T13:52:06.629Z,10.63
2018-01-04T13:54:34.082Z,11.07
2018-01-04T13:57:01.578Z,10.60
2018-01-04T13:59:29.041Z,11.63
2018-01-04T14:01:56.501Z,11.07
2018-01-04T14:04:24.730Z,9.70
2018-01-04T14:06:52.206Z,10.53
2018-01-04T14:09:19.656Z,10.60
2018-01-04T14:11:47.123Z,9.00
2018-01-04T14:14:14.579Z,9.77
2018-01-04T14:16:42.093Z,9.50
2018-01-04T14:19:09.522Z,10.40
2018-01-04T14:21:36.987Z,9.27
2018-01-04T14:24:04.442Z,9.07
2018-01-04T14:26:32.717Z,8.93
2018-01-04T14:29:00.941Z,9.23
2018-01-04T14:31:28.401Z,9.23
2018-01-04T14:33:55.851Z,9.10
2018-01-04T14:36:23.329Z,9.07
2018-01-04T14:38:50.801Z,8.80
2018-01-04T14:41:18.283Z,8.70
2018-01-04T14:43:46.533Z,8.03
2018-01-04T14:46:13.989Z,9.40
2018-01-04T14:48:42.084Z,8.10
2018-01-04T14:51:09.537Z,7.67
2018-01-04T14:53:37.003Z,8.60
2018-01-04T14:56:05.220Z,8.77
2018-01-04T14:58:32.677Z,7.70
2018-01-04T15:01:00.136Z,8.37
2018-01-04T15:03:27.626Z,7.50
2018-01-04T15:05:55.077Z,8.23
2018-01-04T15:08:23.302Z,8.20
2018-01-04T15:10:50.749Z,7.77
2018-01-04T15:13:18.968Z,7.57
2018-01-04T15:15:46.428Z,7.33
2018-01-04T15:18:13.893Z,8.60
2018-01-04T15:20:41.345Z,8.20
2018-01-04T15:23:08.813Z,9.57
2018-01-04T15:25:36.257Z,9.10
2018-01-04T15:28:03.722Z,9.00
2018-01-04T15:30:31.933Z,9.73
2018-01-04T15:33:00.166Z,9.17
2018-01-04T15:35:27.620Z,8.80
2018-01-04T15:37:55.102Z,9.57
2018-01-04T15:40:22.542Z,9.00
2018-01-04T15:42:50.005Z,9.90
2018-01-04T15:45:17.460Z,10.40
2018-01-04T15:47:44.922Z,9.93
2018-01-04T15:50:12.390Z,9.50
2018-01-04T15:52:39.851Z,10.50
2018-01-04T15:55:07.310Z,10.60
2018-01-04T15:57:34.761Z,11.33
2018-01-04T16:00:02.262Z,11.07
2018-01-04T16:02:29.692Z,11.13
2018-01-04T16:04:57.152Z,10.83
2018-01-04T16:07:24.608Z,10.77
2018-01-04T16:09:52.066Z,10.30
2018-01-04T16:12:20.294Z,10.87
2018-01-04T16:14:47.790Z,10.87
2018-01-04T16:17:15.237Z,9.43
2018-01-04T16:19:42.713Z,9.10
2018-01-04T16:22:10.175Z,10.20
2018-01-04T16:24:38.426Z,10.37
2018-01-04T16:27:05.882Z,9.10
2018-01-04T16:29:33.360Z,10.60
2018-01-04T16:32:00.815Z,9.50
2018-01-04T16:34:28.282Z,10.10
2018-01-04T16:36:56.497Z,9.13
2018-01-04T16:39:23.961Z,9.30
2018-01-04T16:41:51.425Z,10.17
2018-01-04T16:44:18.895Z,10.33
2018-01-04T16:46:46.376Z,10.17
2018-01-04T16:49:13.825Z,10.10
2018-01-04T16:51:41.290Z,9.40
2018-01-04T16:54:08.746Z,10.10
2018-01-04T16:56:36.206Z,9.77
2018-01-04T16:59:03.668Z,9.60
2018-01-04T17:01:31.126Z,10.00
2018-01-04T17:03:58.573Z,9.60
2018-01-04T17:06:26.025Z,9.80
2018-01-04T17:08:53.503Z,9.60
2018-01-04T17:11:21.726Z,9.07
2018-01-04T17:13:49.192Z,9.20
2018-01-04T17:16:16.670Z,8.87
2018-01-04T17:18:44.120Z,8.10
2018-01-04T17:21:11.591Z,9.47
2018-01-04T17:23:39.058Z,9.20
2018-01-04T17:26:06.546Z,8.70
2018-01-04T17:28:34.015Z,9.77
2018-01-04T17:31:01.472Z,8.73
2018-01-04T17:33:28.914Z,9.60
2018-01-04T17:35:56.374Z,9.67
2018-01-04T17:38:23.831Z,8.73
2018-01-04T17:40:51.273Z,9.33
2018-01-04T17:43:19.505Z,8.67
2018-01-04T17:45:46.966Z,9.30
2018-01-04T17:48:14.425Z,8.80
2018-01-04T17:50:41.878Z,8.60
2018-01-04T17:53:09.334Z,8.53
2018-01-04T17:55:36.788Z,8.00
2018-01-04T17:58:04.250Z,8.63
2018-01-04T18:00:31.713Z,8.90
2018-01-04T18:02:59.166Z,8.17
2018-01-04T18:05:26.617Z,9.30
2018-01-04T18:07:54.069Z,7.90
2018-01-04T18:10:21.513Z,8.40
2018-01-04T18:12:48.974Z,8.83
2018-01-04T18:15:16.430Z,7.97
2018-01-04T18:17:43.885Z,7.83
2018-01-04T18:20:11.346Z,7.10
2018-01-04T18:22:38.801Z,8.70
2018-01-04T18:25:06.263Z,7.63
2018-01-04T18:27:33.730Z,8.00
2018-01-04T18:30:01.179Z,8.60
2018-01-04T18:32:28.641Z,8.40
2018-01-04T18:34:56.097Z,8.70
2018-01-04T18:37:23.605Z,8.50
2018-01-04T18:39:51.846Z,7.80
2018-01-04T18:42:19.352Z,8.73
2018-01-04T18:44:47.605Z,9.17
2018-01-04T18:47:15.060Z,8.50
2018-01-04T18:49:42.525Z,8.63
2018-01-04T18:52:10.758Z,8.90
2018-01-04T18:54:38.262Z,8.47
2018-01-04T18:57:06.484Z,9.10
2018-01-04T18:59:35.890Z,9.20
2018-01-04T19:02:03.557Z,9.23
2018-01-04T19:04:32.153Z,8.40
2018-01-04T19:06:59.628Z,9.37
2018-01-04T19:09:27.125Z,8.50
2018-01-04T19:11:54.581Z,8.83
2018-01-04T19:14:26.194Z,9.20
2018-01-04T19:16:53.797Z,9.90
2018-01-04T19:19:21.299Z,8.67
2018-01-04T19:21:48.810Z,9.20
2018-01-04T19:24:17.053Z,8.90
2018-01-04T19:26:44.555Z,8.20
2018-01-04T19:29:13.695Z,9.10
2018-01-04T19:31:42.062Z,8.53
2018-01-04T19:34:09.589Z,8.70
2018-01-04T19:36:37.077Z,8.63
2018-01-04T19:39:04.552Z,7.73
2018-01-04T19:41:32.810Z,8.30
2018-01-04T19:44:00.339Z,8.50
2018-01-04T19:46:27.836Z,8.37
2018-01-04T19:48:55.273Z,8.93
2018-01-04T19:51:22.749Z,8.50
2018-01-04T19:53:50.216Z,8.53
2018-01-04T19:56:17.744Z,9.10
2018-01-04T19:58:45.255Z,8.13
2018-01-04T20:01:12.726Z,8.63
2018-01-04T20:03:40.985Z,7.93
2018-01-04T20:06:09.456Z,7.37
2018-01-04T20:08:36.967Z,7.33
2018-01-04T20:11:04.438Z,7.57
2018-01-04T20:13:32.012Z,7.87
2018-01-04T20:15:59.580Z,7.60
2018-01-04T20:18:28.086Z,7.60
2018-01-04T20:20:55.562Z,7.30
2018-01-04T20:23:23.099Z,7.17
2018-01-04T20:25:50.627Z,7.80
2018-01-04T20:28:18.090Z,7.17
2018-01-04T20:30:45.686Z,7.40
2018-01-04T20:33:13.965Z,7.03
2018-01-04T20:35:42.206Z,7.30
2018-01-04T20:38:09.656Z,7.67
2018-01-04T20:40:37.177Z,6.43
2018-01-04T20:43:04.755Z,6.27
2018-01-04T20:45:32.419Z,7.20
2018-01-04T20:48:00.672Z,7.07
2018-01-04T20:50:28.874Z,7.40
2018-01-04T20:52:56.363Z,6.70
2018-01-04T20:55:23.829Z,7.53
2018-01-04T20:57:51.294Z,6.53
2018-01-04T21:00:18.949Z,7.37
2018-01-04T21:02:47.397Z,7.00
2018-01-04T21:05:14.907Z,7.63
2018-01-04T21:07:43.146Z,7.10
2018-01-04T21:10:10.613Z,6.40
2018-01-04T21:12:38.096Z,7.30
2018-01-04T21:15:06.321Z,6.80
2018-01-04T21:17:34.083Z,6.50
2018-01-04T21:20:02.597Z,6.73
2018-01-04T21:22:30.083Z,6.80
2018-01-04T21:24:57.548Z,6.73
2018-01-04T21:27:26.023Z,7.10
2018-01-04T21:29:54.249Z,7.13
2018-01-04T21:32:21.709Z,7.23
2018-01-04T21:34:49.176Z,6.70
2018-01-04T21:37:16.621Z,7.17
2018-01-04T21:39:44.098Z,5.83
2018-01-04T21:42:12.354Z,6.47
2018-01-04T21:44:39.830Z,5.93
2018-01-04T21:47:08.039Z,6.60
2018-01-04T21:49:35.510Z,6.50
2018-01-04T21:52:03.775Z,5.50
2018-01-04T21:54:32.047Z,6.07
2018-01-04T21:57:00.267Z,6.10
2018-01-04T21:59:27.740Z,6.50
2018-01-04T22:01:55.198Z,6.40
2018-01-04T22:04:22.664Z,5.47
2018-01-04T22:06:50.256Z,5.50
2018-01-04T22:09:17.719Z,6.27
2018-01-04T22:11:45.177Z,5.90
2018-01-04T22:14:14.616Z,5.97
2018-01-04T22:16:43.086Z,5.30
2018-01-04T22:19:10.541Z,6.17
2018-01-04T22:21:38.001Z,5.57
2018-01-04T22:24:09.525Z,6.43
2018-01-04T22:26:37.749Z,5.50
2018-01-04T22:29:05.709Z,5.93
2018-01-04T22:31:33.270Z,5.80
2018-01-04T22:34:00.729Z,5.20
2018-01-04T22:36:28.433Z,4.90
2018-01-04T22:38:57.323Z,5.00
2018-01-04T22:41:24.935Z,4.80
2018-01-04T22:43:53.193Z,5.77
2018-01-04T22:46:20.684Z,4.80
2018-01-04T22:48:48.141Z,5.37
2018-01-04T22:51:15.638Z,5.30
2018-01-04T22:53:43.219Z,4.60
2018-01-04T22:56:10.714Z,4.40
2018-01-04T22:58:38.170Z,4.47
2018-01-04T23:01:05.640Z,4.90
2018-01-04T23:03:33.129Z,4.63
2018-01-04T23:06:00.579Z,4.70
2018-01-04T23:08:28.112Z,4.93
2018-01-04T23:10:55.569Z,4.80
2018-01-04T23:13:23.063Z,4.97
2018-01-04T23:15:51.292Z,4.50
2018-01-04T23:18:19.072Z,4.87
2018-01-04T23:20:46.525Z,4.40
2018-01-04T23:23:14.017Z,4.70
2018-01-04T23:25:41.473Z,4.00
2018-01-04T23:28:08.929Z,4.77
2018-01-04T23:30:37.000Z,4.10
2018-01-04T23:33:04.454Z,4.57
2018-01-04T23:35:31.928Z,4.50
2018-01-04T23:38:00.769Z,4.70
2018-01-04T23:40:28.339Z,4.20
2018-01-04T23:42:56.748Z,4.47
2018-01-04T23:45:24.310Z,4.30
2018-01-04T23:47:51.753Z,4.20
2018-01-04T23:50:19.295Z,4.50
2018-01-04T23:52:46.762Z,3.90
2018-01-04T23:55:17.478Z,4.10
2018-01-04T23:57:44.925Z,4.13
